sensor_id;sensor_type;location;lat;lon;timestamp;pressure;altitude;pressure_sealevel;temperature;humidity
49611;BME280;35515;48.766;9.176;2022-09-09T00:00:53;97999.63;;;17.34;65.70
49611;BME280;35515;48.766;9.176;2022-09-09T00:03:26;97989.78;;;17.33;65.59
49611;BME280;35515;48.766;9.176;2022-09-09T00:05:59;98001.00;;;17.31;65.33
49611;BME280;35515;48.766;9.176;2022-09-09T00:08:35;97996.34;;;17.32;65.19
49611;BME280;35515;48.766;9.176;2022-09-09T00:11:12;97995.78;;;17.30;65.42
49611;BME280;35515;48.766;9.176;2022-09-09T00:13:43;97989.41;;;17.19;65.84
49611;BME280;35515;48.766;9.176;2022-09-09T00:16:15;97995.25;;;17.00;66.77
49611;BME280;35515;48.766;9.176;2022-09-09T00:18:52;97986.38;;;17.20;65.91
49611;BME280;35515;48.766;9.176;2022-09-09T00:21:24;97989.75;;;17.28;65.67
49611;BME280;35515;48.766;9.176;2022-09-09T00:23:54;97982.03;;;17.25;65.32
49611;BME280;35515;48.766;9.176;2022-09-09T00:26:29;97987.91;;;17.38;64.54
49611;BME280;35515;48.766;9.176;2022-09-09T00:29:03;97982.25;;;17.18;65.83
49611;BME280;35515;48.766;9.176;2022-09-09T00:31:32;97986.00;;;17.07;66.04
49611;BME280;35515;48.766;9.176;2022-09-09T00:34:03;97984.72;;;17.14;65.89
49611;BME280;35515;48.766;9.176;2022-09-09T00:36:32;97993.97;;;17.08;66.33
49611;BME280;35515;48.766;9.176;2022-09-09T00:39:00;97986.59;;;17.14;65.87
49611;BME280;35515;48.766;9.176;2022-09-09T00:41:36;97989.19;;;17.26;65.62
49611;BME280;35515;48.766;9.176;2022-09-09T00:44:21;97987.00;;;17.28;65.53
49611;BME280;35515;48.766;9.176;2022-09-09T00:47:01;97990.56;;;17.28;65.10
49611;BME280;35515;48.766;9.176;2022-09-09T00:49:39;97976.03;;;17.23;65.72
49611;BME280;35515;48.766;9.176;2022-09-09T00:52:23;97991.88;;;17.20;65.28
49611;BME280;35515;48.766;9.176;2022-09-09T00:55:04;97989.94;;;17.16;65.87
49611;BME280;35515;48.766;9.176;2022-09-09T00:57:33;97996.09;;;17.01;67.08
49611;BME280;35515;48.766;9.176;2022-09-09T01:00:17;97995.19;;;17.23;66.35
49611;BME280;35515;48.766;9.176;2022-09-09T01:02:57;97989.19;;;17.26;66.12
49611;BME280;35515;48.766;9.176;2022-09-09T01:05:34;97990.78;;;17.21;65.96
49611;BME280;35515;48.766;9.176;2022-09-09T01:08:08;97986.47;;;17.31;65.27
49611;BME280;35515;48.766;9.176;2022-09-09T01:10:43;97978.63;;;17.40;64.48
49611;BME280;35515;48.766;9.176;2022-09-09T01:13:19;97982.13;;;17.35;64.63
49611;BME280;35515;48.766;9.176;2022-09-09T01:15:50;97970.69;;;17.43;64.26
49611;BME280;35515;48.766;9.176;2022-09-09T01:18:21;97976.81;;;17.55;63.95
49611;BME280;35515;48.766;9.176;2022-09-09T01:20:54;97976.22;;;17.48;64.13
49611;BME280;35515;48.766;9.176;2022-09-09T01:23:47;97988.91;;;17.60;63.60
49611;BME280;35515;48.766;9.176;2022-09-09T01:26:23;97984.88;;;17.78;62.22
49611;BME280;35515;48.766;9.176;2022-09-09T01:28:52;98005.59;;;17.63;62.28
49611;BME280;35515;48.766;9.176;2022-09-09T01:31:22;98004.75;;;17.58;62.82
49611;BME280;35515;48.766;9.176;2022-09-09T01:33:49;97998.97;;;17.49;63.11
49611;BME280;35515;48.766;9.176;2022-09-09T01:36:23;98003.59;;;17.48;63.01
49611;BME280;35515;48.766;9.176;2022-09-09T01:38:52;98008.25;;;17.48;63.52
49611;BME280;35515;48.766;9.176;2022-09-09T01:41:21;98008.56;;;17.51;63.02
49611;BME280;35515;48.766;9.176;2022-09-09T01:43:48;98002.47;;;17.44;63.65
49611;BME280;35515;48.766;9.176;2022-09-09T01:46:16;97995.41;;;17.53;63.02
49611;BME280;35515;48.766;9.176;2022-09-09T01:48:43;97991.81;;;17.48;63.51
49611;BME280;35515;48.766;9.176;2022-09-09T01:51:14;97994.09;;;17.61;62.73
49611;BME280;35515;48.766;9.176;2022-09-09T01:56:56;97993.38;;;17.76;61.69
49611;BME280;35515;48.766;9.176;2022-09-09T01:59:40;97999.44;;;17.78;61.25
49611;BME280;35515;48.766;9.176;2022-09-09T02:02:14;97987.66;;;17.83;61.11
49611;BME280;35515;48.766;9.176;2022-09-09T02:04:44;97980.66;;;17.54;61.98
49611;BME280;35515;48.766;9.176;2022-09-09T02:07:22;97981.72;;;17.53;62.43
49611;BME280;35515;48.766;9.176;2022-09-09T02:09:59;97982.88;;;17.63;61.65
49611;BME280;35515;48.766;9.176;2022-09-09T02:12:29;97993.03;;;17.62;61.54
49611;BME280;35515;48.766;9.176;2022-09-09T02:15:03;97994.91;;;17.62;61.41
49611;BME280;35515;48.766;9.176;2022-09-09T02:17:33;97996.75;;;17.51;62.51
49611;BME280;35515;48.766;9.176;2022-09-09T02:20:05;98007.16;;;17.49;62.62
49611;BME280;35515;48.766;9.176;2022-09-09T02:22:34;98001.88;;;17.37;63.36
49611;BME280;35515;48.766;9.176;2022-09-09T02:25:02;97986.97;;;17.23;63.94
49611;BME280;35515;48.766;9.176;2022-09-09T02:27:32;97986.56;;;17.09;65.08
49611;BME280;35515;48.766;9.176;2022-09-09T02:29:59;97999.00;;;17.21;64.51
49611;BME280;35515;48.766;9.176;2022-09-09T02:32:28;98003.66;;;16.94;65.44
49611;BME280;35515;48.766;9.176;2022-09-09T02:34:59;97995.72;;;17.19;64.42
49611;BME280;35515;48.766;9.176;2022-09-09T02:37:33;98006.78;;;17.02;64.97
49611;BME280;35515;48.766;9.176;2022-09-09T02:40:02;98008.44;;;17.03;64.92
49611;BME280;35515;48.766;9.176;2022-09-09T02:42:29;98004.19;;;16.91;65.71
49611;BME280;35515;48.766;9.176;2022-09-09T02:44:59;98000.81;;;17.11;64.81
49611;BME280;35515;48.766;9.176;2022-09-09T02:47:30;97993.84;;;16.98;65.20
49611;BME280;35515;48.766;9.176;2022-09-09T02:50:08;97996.44;;;16.82;65.96
49611;BME280;35515;48.766;9.176;2022-09-09T02:52:45;97991.50;;;16.84;66.11
49611;BME280;35515;48.766;9.176;2022-09-09T02:55:18;97998.38;;;16.87;66.00
49611;BME280;35515;48.766;9.176;2022-09-09T02:57:49;97997.97;;;16.73;66.38
49611;BME280;35515;48.766;9.176;2022-09-09T03:00:22;97989.69;;;16.90;66.09
49611;BME280;35515;48.766;9.176;2022-09-09T03:02:49;97986.31;;;16.83;66.08
49611;BME280;35515;48.766;9.176;2022-09-09T03:05:16;97983.31;;;16.84;66.09
49611;BME280;35515;48.766;9.176;2022-09-09T03:07:43;97977.16;;;16.72;66.39
49611;BME280;35515;48.766;9.176;2022-09-09T03:10:09;97984.56;;;16.71;66.52
49611;BME280;35515;48.766;9.176;2022-09-09T03:12:36;97981.03;;;16.98;65.51
49611;BME280;35515;48.766;9.176;2022-09-09T03:15:04;97983.00;;;17.08;65.25
49611;BME280;35515;48.766;9.176;2022-09-09T03:17:32;97984.13;;;17.12;64.50
49611;BME280;35515;48.766;9.176;2022-09-09T03:20:00;97992.63;;;17.11;64.45
49611;BME280;35515;48.766;9.176;2022-09-09T03:22:26;97985.31;;;17.21;63.86
49611;BME280;35515;48.766;9.176;2022-09-09T03:24:53;97974.41;;;17.27;63.03
49611;BME280;35515;48.766;9.176;2022-09-09T03:27:19;97980.31;;;17.13;64.21
49611;BME280;35515;48.766;9.176;2022-09-09T03:29:46;97985.59;;;16.93;65.65
49611;BME280;35515;48.766;9.176;2022-09-09T03:32:16;97992.09;;;16.86;66.28
49611;BME280;35515;48.766;9.176;2022-09-09T03:34:45;97991.81;;;16.88;66.12
49611;BME280;35515;48.766;9.176;2022-09-09T03:37:12;97984.09;;;16.80;66.44
49611;BME280;35515;48.766;9.176;2022-09-09T03:39:39;97977.06;;;16.62;67.32
49611;BME280;35515;48.766;9.176;2022-09-09T03:42:06;97979.59;;;16.68;67.18
49611;BME280;35515;48.766;9.176;2022-09-09T03:44:32;97981.81;;;16.71;67.08
49611;BME280;35515;48.766;9.176;2022-09-09T03:46:59;97985.38;;;16.72;67.00
49611;BME280;35515;48.766;9.176;2022-09-09T03:49:26;97990.22;;;16.65;67.41
49611;BME280;35515;48.766;9.176;2022-09-09T03:51:55;97974.03;;;16.58;67.94
49611;BME280;35515;48.766;9.176;2022-09-09T03:54:22;97973.78;;;16.60;67.94
49611;BME280;35515;48.766;9.176;2022-09-09T03:56:49;97969.19;;;16.93;66.34
49611;BME280;35515;48.766;9.176;2022-09-09T03:59:15;97974.50;;;16.77;66.87
49611;BME280;35515;48.766;9.176;2022-09-09T04:01:42;97971.41;;;16.96;66.28
49611;BME280;35515;48.766;9.176;2022-09-09T04:04:09;97978.50;;;16.92;66.29
49611;BME280;35515;48.766;9.176;2022-09-09T04:06:37;97978.75;;;16.90;66.24
49611;BME280;35515;48.766;9.176;2022-09-09T04:09:05;97985.66;;;16.98;65.71
49611;BME280;35515;48.766;9.176;2022-09-09T04:11:31;97981.28;;;16.97;65.82
49611;BME280;35515;48.766;9.176;2022-09-09T04:13:58;97983.50;;;17.00;65.90
49611;BME280;35515;48.766;9.176;2022-09-09T04:16:25;97975.28;;;17.00;65.60
49611;BME280;35515;48.766;9.176;2022-09-09T04:18:51;97976.09;;;17.00;65.19
49611;BME280;35515;48.766;9.176;2022-09-09T04:21:18;97978.34;;;17.09;65.14
49611;BME280;35515;48.766;9.176;2022-09-09T04:23:45;97977.50;;;17.03;64.97
49611;BME280;35515;48.766;9.176;2022-09-09T04:26:13;97984.13;;;17.12;64.21
49611;BME280;35515;48.766;9.176;2022-09-09T04:28:39;97989.41;;;17.19;64.41
49611;BME280;35515;48.766;9.176;2022-09-09T04:31:08;97986.81;;;17.07;64.15
49611;BME280;35515;48.766;9.176;2022-09-09T04:33:36;97979.28;;;17.19;63.95
49611;BME280;35515;48.766;9.176;2022-09-09T04:36:03;97983.63;;;17.15;64.09
49611;BME280;35515;48.766;9.176;2022-09-09T04:38:32;97977.59;;;17.13;64.33
49611;BME280;35515;48.766;9.176;2022-09-09T04:40:59;97997.22;;;17.37;63.03
49611;BME280;35515;48.766;9.176;2022-09-09T04:43:28;97989.44;;;17.24;63.81
49611;BME280;35515;48.766;9.176;2022-09-09T04:45:56;97996.00;;;17.23;63.92
49611;BME280;35515;48.766;9.176;2022-09-09T04:48:24;97990.97;;;17.10;64.43
49611;BME280;35515;48.766;9.176;2022-09-09T04:50:56;97996.84;;;16.96;65.07
49611;BME280;35515;48.766;9.176;2022-09-09T04:53:23;98005.38;;;17.00;64.79
49611;BME280;35515;48.766;9.176;2022-09-09T04:55:50;98009.78;;;17.01;65.12
49611;BME280;35515;48.766;9.176;2022-09-09T04:58:20;98002.06;;;16.98;64.84
49611;BME280;35515;48.766;9.176;2022-09-09T05:00:50;98009.59;;;16.85;65.55
49611;BME280;35515;48.766;9.176;2022-09-09T05:03:17;98000.94;;;16.94;65.44
49611;BME280;35515;48.766;9.176;2022-09-09T05:05:44;98006.56;;;17.09;64.72
49611;BME280;35515;48.766;9.176;2022-09-09T05:08:11;98012.94;;;16.93;65.35
49611;BME280;35515;48.766;9.176;2022-09-09T05:10:38;98012.94;;;16.93;65.45
49611;BME280;35515;48.766;9.176;2022-09-09T05:13:07;98015.88;;;16.86;65.87
49611;BME280;35515;48.766;9.176;2022-09-09T05:15:33;98017.34;;;16.94;65.65
49611;BME280;35515;48.766;9.176;2022-09-09T05:18:02;98017.78;;;16.85;66.13
49611;BME280;35515;48.766;9.176;2022-09-09T05:20:28;98020.97;;;16.99;65.67
49611;BME280;35515;48.766;9.176;2022-09-09T05:22:55;98022.28;;;16.92;65.97
49611;BME280;35515;48.766;9.176;2022-09-09T05:25:22;98018.25;;;16.99;65.53
49611;BME280;35515;48.766;9.176;2022-09-09T05:27:53;98013.97;;;16.86;66.38
49611;BME280;35515;48.766;9.176;2022-09-09T05:30:20;98023.25;;;16.85;66.42
49611;BME280;35515;48.766;9.176;2022-09-09T05:32:47;98018.94;;;16.90;66.44
49611;BME280;35515;48.766;9.176;2022-09-09T05:35:16;98015.63;;;16.87;66.90
49611;BME280;35515;48.766;9.176;2022-09-09T05:37:44;98027.38;;;16.88;66.64
49611;BME280;35515;48.766;9.176;2022-09-09T05:40:11;98029.63;;;16.91;66.80
49611;BME280;35515;48.766;9.176;2022-09-09T05:42:37;98027.88;;;17.07;66.23
49611;BME280;35515;48.766;9.176;2022-09-09T05:45:05;98035.47;;;17.00;66.21
49611;BME280;35515;48.766;9.176;2022-09-09T05:47:32;98033.94;;;17.09;65.94
49611;BME280;35515;48.766;9.176;2022-09-09T05:49:59;98028.47;;;17.09;65.99
49611;BME280;35515;48.766;9.176;2022-09-09T05:52:27;98035.00;;;17.08;65.92
49611;BME280;35515;48.766;9.176;2022-09-09T05:54:54;98035.50;;;17.32;65.34
49611;BME280;35515;48.766;9.176;2022-09-09T05:57:23;98028.56;;;17.19;65.74
49611;BME280;35515;48.766;9.176;2022-09-09T05:59:50;98033.13;;;17.41;64.58
49611;BME280;35515;48.766;9.176;2022-09-09T06:02:16;98039.13;;;17.38;64.95
49611;BME280;35515;48.766;9.176;2022-09-09T06:04:43;98040.50;;;17.41;64.67
49611;BME280;35515;48.766;9.176;2022-09-09T06:07:09;98032.59;;;17.44;64.79
49611;BME280;35515;48.766;9.176;2022-09-09T06:09:37;98035.47;;;17.60;64.04
49611;BME280;35515;48.766;9.176;2022-09-09T06:12:04;98038.25;;;17.70;63.77
49611;BME280;35515;48.766;9.176;2022-09-09T06:14:31;98024.72;;;17.53;64.43
49611;BME280;35515;48.766;9.176;2022-09-09T06:16:58;98035.47;;;17.60;64.43
49611;BME280;35515;48.766;9.176;2022-09-09T06:19:24;98035.50;;;17.65;64.13
49611;BME280;35515;48.766;9.176;2022-09-09T06:21:51;98035.09;;;17.51;65.15
49611;BME280;35515;48.766;9.176;2022-09-09T06:24:18;98040.72;;;17.34;65.82
49611;BME280;35515;48.766;9.176;2022-09-09T06:26:46;98036.53;;;17.59;64.88
49611;BME280;35515;48.766;9.176;2022-09-09T06:29:13;98043.00;;;17.42;65.47
49611;BME280;35515;48.766;9.176;2022-09-09T06:31:39;98043.06;;;17.52;65.44
49611;BME280;35515;48.766;9.176;2022-09-09T06:34:07;98040.88;;;17.54;65.53
49611;BME280;35515;48.766;9.176;2022-09-09T06:36:35;98035.50;;;17.65;65.08
49611;BME280;35515;48.766;9.176;2022-09-09T06:39:03;98043.38;;;17.56;65.81
49611;BME280;35515;48.766;9.176;2022-09-09T06:41:32;98046.63;;;17.53;66.14
49611;BME280;35515;48.766;9.176;2022-09-09T06:44:00;98047.19;;;17.55;66.03
49611;BME280;35515;48.766;9.176;2022-09-09T06:46:30;98047.81;;;17.62;65.66
49611;BME280;35515;48.766;9.176;2022-09-09T06:48:58;98048.34;;;17.64;65.80
49611;BME280;35515;48.766;9.176;2022-09-09T06:51:26;98051.41;;;17.68;65.84
49611;BME280;35515;48.766;9.176;2022-09-09T06:53:55;98045.63;;;17.64;66.24
49611;BME280;35515;48.766;9.176;2022-09-09T06:56:23;98043.72;;;17.70;66.18
49611;BME280;35515;48.766;9.176;2022-09-09T06:58:51;98050.06;;;17.70;66.04
49611;BME280;35515;48.766;9.176;2022-09-09T07:01:21;98052.03;;;17.80;65.83
49611;BME280;35515;48.766;9.176;2022-09-09T07:03:49;98042.16;;;17.74;66.12
49611;BME280;35515;48.766;9.176;2022-09-09T07:06:18;98046.28;;;17.77;66.17
49611;BME280;35515;48.766;9.176;2022-09-09T07:08:48;98058.09;;;17.82;65.86
49611;BME280;35515;48.766;9.176;2022-09-09T07:11:15;98049.91;;;17.87;66.18
49611;BME280;35515;48.766;9.176;2022-09-09T07:13:42;98054.81;;;17.85;66.39
49611;BME280;35515;48.766;9.176;2022-09-09T07:16:13;98060.31;;;17.91;66.38
49611;BME280;35515;48.766;9.176;2022-09-09T07:18:41;98048.34;;;18.02;64.77
49611;BME280;35515;48.766;9.176;2022-09-09T07:21:09;98048.88;;;17.94;65.80
49611;BME280;35515;48.766;9.176;2022-09-09T07:23:37;98051.09;;;18.02;65.37
49611;BME280;35515;48.766;9.176;2022-09-09T07:26:08;98035.25;;;18.09;64.68
49611;BME280;35515;48.766;9.176;2022-09-09T07:28:34;98042.88;;;18.02;65.60
49611;BME280;35515;48.766;9.176;2022-09-09T07:31:02;98041.88;;;18.13;64.61
49611;BME280;35515;48.766;9.176;2022-09-09T07:33:30;98049.50;;;18.11;65.13
49611;BME280;35515;48.766;9.176;2022-09-09T07:36:04;98052.81;;;18.13;65.10
49611;BME280;35515;48.766;9.176;2022-09-09T07:38:37;98050.09;;;18.13;65.33
49611;BME280;35515;48.766;9.176;2022-09-09T07:41:04;98045.56;;;18.40;64.08
49611;BME280;35515;48.766;9.176;2022-09-09T07:43:31;98041.69;;;18.30;64.76
49611;BME280;35515;48.766;9.176;2022-09-09T07:45:59;98046.63;;;18.33;64.49
49611;BME280;35515;48.766;9.176;2022-09-09T07:48:29;98043.09;;;18.38;64.63
49611;BME280;35515;48.766;9.176;2022-09-09T07:51:06;98052.41;;;18.37;64.65
49611;BME280;35515;48.766;9.176;2022-09-09T07:53:33;98052.41;;;18.37;64.75
49611;BME280;35515;48.766;9.176;2022-09-09T07:56:06;98052.69;;;18.35;64.80
49611;BME280;35515;48.766;9.176;2022-09-09T07:58:34;98050.16;;;18.24;64.86
49611;BME280;35515;48.766;9.176;2022-09-09T08:01:06;98053.16;;;18.27;65.28
49611;BME280;35515;48.766;9.176;2022-09-09T08:03:33;98060.06;;;18.35;65.03
49611;BME280;35515;48.766;9.176;2022-09-09T08:06:00;98057.06;;;18.42;64.74
49611;BME280;35515;48.766;9.176;2022-09-09T08:08:29;98063.44;;;18.47;64.49
49611;BME280;35515;48.766;9.176;2022-09-09T08:11:02;98068.16;;;18.62;64.12
49611;BME280;35515;48.766;9.176;2022-09-09T08:13:28;98069.00;;;18.73;62.97
49611;BME280;35515;48.766;9.176;2022-09-09T08:16:04;98063.56;;;18.83;62.64
49611;BME280;35515;48.766;9.176;2022-09-09T08:18:30;98054.84;;;18.97;61.86
49611;BME280;35515;48.766;9.176;2022-09-09T08:20:57;98065.75;;;18.86;62.03
49611;BME280;35515;48.766;9.176;2022-09-09T08:23:23;98058.63;;;18.85;62.46
49611;BME280;35515;48.766;9.176;2022-09-09T08:25:52;98067.94;;;18.84;62.85
49611;BME280;35515;48.766;9.176;2022-09-09T08:28:18;98072.63;;;18.84;63.04
49611;BME280;35515;48.766;9.176;2022-09-09T08:30:45;98080.63;;;18.96;63.10
49611;BME280;35515;48.766;9.176;2022-09-09T08:33:13;98080.09;;;18.99;63.46
49611;BME280;35515;48.766;9.176;2022-09-09T08:35:39;98076.53;;;18.98;63.17
49611;BME280;35515;48.766;9.176;2022-09-09T08:38:15;98079.53;;;19.02;62.35
49611;BME280;35515;48.766;9.176;2022-09-09T08:40:44;98075.19;;;19.16;61.30
49611;BME280;35515;48.766;9.176;2022-09-09T08:43:18;98067.78;;;19.17;61.33
49611;BME280;35515;48.766;9.176;2022-09-09T08:45:50;98076.31;;;19.15;61.24
49611;BME280;35515;48.766;9.176;2022-09-09T08:48:37;98077.38;;;19.09;61.11
49611;BME280;35515;48.766;9.176;2022-09-09T08:51:07;98072.97;;;19.08;62.08
49611;BME280;35515;48.766;9.176;2022-09-09T08:53:38;98082.34;;;19.17;61.95
49611;BME280;35515;48.766;9.176;2022-09-09T08:56:10;98077.69;;;19.28;60.90
49611;BME280;35515;48.766;9.176;2022-09-09T08:58:43;98072.47;;;19.32;58.80
49611;BME280;35515;48.766;9.176;2022-09-09T09:01:23;98068.63;;;19.28;58.69
49611;BME280;35515;48.766;9.176;2022-09-09T09:04:00;98068.91;;;19.26;59.34
49611;BME280;35515;48.766;9.176;2022-09-09T09:06:42;98071.38;;;19.33;58.38
49611;BME280;35515;48.766;9.176;2022-09-09T09:09:20;98075.78;;;19.44;56.41
49611;BME280;35515;48.766;9.176;2022-09-09T09:11:49;98077.97;;;19.32;56.26
49611;BME280;35515;48.766;9.176;2022-09-09T09:14:20;98077.41;;;19.35;56.35
49611;BME280;35515;48.766;9.176;2022-09-09T09:16:51;98074.69;;;19.40;56.30
49611;BME280;35515;48.766;9.176;2022-09-09T09:19:19;98077.44;;;19.45;56.29
49611;BME280;35515;48.766;9.176;2022-09-09T09:21:50;98080.16;;;19.40;57.23
49611;BME280;35515;48.766;9.176;2022-09-09T09:24:20;98070.28;;;19.44;59.33
49611;BME280;35515;48.766;9.176;2022-09-09T09:26:50;98077.97;;;19.52;61.69
49611;BME280;35515;48.766;9.176;2022-09-09T09:29:19;98090.88;;;19.47;59.32
49611;BME280;35515;48.766;9.176;2022-09-09T09:31:51;98101.84;;;19.26;61.92
49611;BME280;35515;48.766;9.176;2022-09-09T09:34:19;98098.69;;;18.86;64.80
49611;BME280;35515;48.766;9.176;2022-09-09T09:36:53;98085.47;;;18.73;64.82
49611;BME280;35515;48.766;9.176;2022-09-09T09:39:25;98094.75;;;18.62;64.73
49611;BME280;35515;48.766;9.176;2022-09-09T09:41:52;98086.78;;;18.60;64.09
49611;BME280;35515;48.766;9.176;2022-09-09T09:44:25;98078.31;;;18.67;63.54
49611;BME280;35515;48.766;9.176;2022-09-09T09:46:53;98078.25;;;18.57;65.77
49611;BME280;35515;48.766;9.176;2022-09-09T09:49:33;98075.50;;;18.51;65.39
49611;BME280;35515;48.766;9.176;2022-09-09T09:52:00;98074.16;;;18.54;64.59
49611;BME280;35515;48.766;9.176;2022-09-09T09:54:28;98067.81;;;18.48;64.80
49611;BME280;35515;48.766;9.176;2022-09-09T09:56:56;98060.94;;;18.46;66.53
49611;BME280;35515;48.766;9.176;2022-09-09T09:59:35;98055.78;;;18.60;66.64
49611;BME280;35515;48.766;9.176;2022-09-09T10:02:15;98045.41;;;18.72;64.36
49611;BME280;35515;48.766;9.176;2022-09-09T10:04:42;98042.94;;;18.70;64.13
49611;BME280;35515;48.766;9.176;2022-09-09T10:07:11;98043.78;;;18.76;61.90
49611;BME280;35515;48.766;9.176;2022-09-09T10:09:38;98042.44;;;18.84;63.25
49611;BME280;35515;48.766;9.176;2022-09-09T10:12:12;98040.88;;;19.09;63.93
49611;BME280;35515;48.766;9.176;2022-09-09T10:14:52;98041.13;;;19.12;63.71
49611;BME280;35515;48.766;9.176;2022-09-09T10:17:28;98041.13;;;19.12;64.61
49611;BME280;35515;48.766;9.176;2022-09-09T10:20:11;98038.41;;;19.28;63.77
49611;BME280;35515;48.766;9.176;2022-09-09T10:22:44;98035.94;;;19.26;63.65
49611;BME280;35515;48.766;9.176;2022-09-09T10:25:33;98029.63;;;19.31;63.76
49611;BME280;35515;48.766;9.176;2022-09-09T10:28:21;98031.84;;;19.54;63.49
49611;BME280;35515;48.766;9.176;2022-09-09T10:31:01;98027.44;;;19.59;62.93
49611;BME280;35515;48.766;9.176;2022-09-09T10:33:41;98026.34;;;19.65;62.75
49611;BME280;35515;48.766;9.176;2022-09-09T10:36:13;98032.94;;;19.69;62.63
49611;BME280;35515;48.766;9.176;2022-09-09T10:38:44;98036.75;;;19.78;63.48
49611;BME280;35515;48.766;9.176;2022-09-09T10:41:30;98042.25;;;19.78;61.85
49611;BME280;35515;48.766;9.176;2022-09-09T10:44:12;98033.47;;;19.76;61.75
49611;BME280;35515;48.766;9.176;2022-09-09T10:46:53;98037.59;;;19.84;62.02
49611;BME280;35515;48.766;9.176;2022-09-09T10:49:32;98035.94;;;19.88;62.45
49611;BME280;35515;48.766;9.176;2022-09-09T10:52:05;98035.13;;;19.87;61.92
49611;BME280;35515;48.766;9.176;2022-09-09T10:54:45;98033.47;;;19.86;62.83
49611;BME280;35515;48.766;9.176;2022-09-09T10:57:26;98035.13;;;19.87;62.48
49611;BME280;35515;48.766;9.176;2022-09-09T10:59:59;98026.91;;;19.87;62.46
49611;BME280;35515;48.766;9.176;2022-09-09T11:02:32;98026.31;;;20.06;61.79
49611;BME280;35515;48.766;9.176;2022-09-09T11:05:02;98024.66;;;20.05;60.89
49611;BME280;35515;48.766;9.176;2022-09-09T11:07:35;98018.56;;;20.18;60.41
49611;BME280;35515;48.766;9.176;2022-09-09T11:10:12;98019.13;;;20.15;61.02
49611;BME280;35515;48.766;9.176;2022-09-09T11:12:44;98016.91;;;20.17;59.13
49611;BME280;35515;48.766;9.176;2022-09-09T11:15:14;98010.31;;;20.18;57.98
49611;BME280;35515;48.766;9.176;2022-09-09T11:17:46;98020.75;;;20.21;58.36
49611;BME280;35515;48.766;9.176;2022-09-09T11:20:15;98029.56;;;20.24;57.57
49611;BME280;35515;48.766;9.176;2022-09-09T11:22:45;98046.59;;;20.26;55.91
49611;BME280;35515;48.766;9.176;2022-09-09T11:25:17;98042.47;;;20.23;52.28
49611;BME280;35515;48.766;9.176;2022-09-09T11:27:55;98057.66;;;20.05;53.09
49611;BME280;35515;48.766;9.176;2022-09-09T11:30:30;98052.72;;;19.97;52.54
49611;BME280;35515;48.766;9.176;2022-09-09T11:33:28;98058.22;;;19.92;52.33
49611;BME280;35515;48.766;9.176;2022-09-09T11:36:11;98065.66;;;19.86;51.35
49611;BME280;35515;48.766;9.176;2022-09-09T11:38:45;98078.84;;;19.94;51.99
49611;BME280;35515;48.766;9.176;2022-09-09T11:41:13;98079.38;;;19.91;52.57
49611;BME280;35515;48.766;9.176;2022-09-09T11:43:42;98076.34;;;19.72;52.88
49611;BME280;35515;48.766;9.176;2022-09-09T11:46:10;98081.81;;;19.62;53.89
49611;BME280;35515;48.766;9.176;2022-09-09T11:48:42;98073.03;;;19.49;53.56
49611;BME280;35515;48.766;9.176;2022-09-09T11:51:12;98070.84;;;19.36;53.58
49611;BME280;35515;48.766;9.176;2022-09-09T11:53:50;98064.25;;;19.32;53.84
49611;BME280;35515;48.766;9.176;2022-09-09T11:56:26;98069.19;;;19.40;53.91
49611;BME280;35515;48.766;9.176;2022-09-09T11:58:55;98062.84;;;19.29;54.03
49611;BME280;35515;48.766;9.176;2022-09-09T12:01:29;98056.81;;;19.37;53.87
49611;BME280;35515;48.766;9.176;2022-09-09T12:04:13;98056.53;;;19.39;54.19
49611;BME280;35515;48.766;9.176;2022-09-09T12:06:45;98065.34;;;19.57;53.81
49611;BME280;35515;48.766;9.176;2022-09-09T12:09:20;98064.81;;;19.54;52.81
49611;BME280;35515;48.766;9.176;2022-09-09T12:11:48;98062.31;;;19.37;52.51
49611;BME280;35515;48.766;9.176;2022-09-09T12:14:35;98053.78;;;19.34;53.10
49611;BME280;35515;48.766;9.176;2022-09-09T12:17:10;98052.44;;;19.31;53.14
49611;BME280;35515;48.766;9.176;2022-09-09T12:19:46;98051.59;;;19.36;53.56
49611;BME280;35515;48.766;9.176;2022-09-09T12:22:20;98057.63;;;19.43;54.76
49611;BME280;35515;48.766;9.176;2022-09-09T12:24:56;98043.34;;;19.57;54.29
49611;BME280;35515;48.766;9.176;2022-09-09T12:27:28;98043.06;;;19.68;52.48
49611;BME280;35515;48.766;9.176;2022-09-09T12:30:02;98046.41;;;19.81;51.45
49611;BME280;35515;48.766;9.176;2022-09-09T12:32:29;98049.97;;;19.92;51.25
49611;BME280;35515;48.766;9.176;2022-09-09T12:34:59;98029.34;;;19.99;48.54
49611;BME280;35515;48.766;9.176;2022-09-09T12:37:29;98033.38;;;20.28;48.18
49611;BME280;35515;48.766;9.176;2022-09-09T12:39:59;98033.41;;;20.23;47.64
49611;BME280;35515;48.766;9.176;2022-09-09T12:42:28;98033.38;;;20.28;47.34
49611;BME280;35515;48.766;9.176;2022-09-09T12:44:56;98029.56;;;20.18;47.74
49611;BME280;35515;48.766;9.176;2022-09-09T12:47:28;98023.22;;;20.23;48.08
49611;BME280;35515;48.766;9.176;2022-09-09T12:49:59;98028.75;;;20.18;48.92
49611;BME280;35515;48.766;9.176;2022-09-09T12:52:29;98032.59;;;20.22;48.94
49611;BME280;35515;48.766;9.176;2022-09-09T12:54:58;98019.06;;;20.26;49.46
49611;BME280;35515;48.766;9.176;2022-09-09T12:57:33;98028.47;;;20.25;49.71
49611;BME280;35515;48.766;9.176;2022-09-09T13:00:07;98020.22;;;20.25;49.19
49611;BME280;35515;48.766;9.176;2022-09-09T13:02:46;98011.38;;;20.28;50.43
49611;BME280;35515;48.766;9.176;2022-09-09T13:05:17;98009.75;;;20.21;50.79
49611;BME280;35515;48.766;9.176;2022-09-09T13:07:44;98009.19;;;20.25;49.92
49611;BME280;35515;48.766;9.176;2022-09-09T13:10:11;98015.81;;;20.24;50.32
49611;BME280;35515;48.766;9.176;2022-09-09T13:12:39;98008.91;;;20.26;49.57
49611;BME280;35515;48.766;9.176;2022-09-09T13:15:13;98002.03;;;20.29;49.31
49611;BME280;35515;48.766;9.176;2022-09-09T13:17:49;98001.72;;;20.35;49.12
49611;BME280;35515;48.766;9.176;2022-09-09T13:20:20;97996.25;;;20.30;49.87
49611;BME280;35515;48.766;9.176;2022-09-09T13:22:48;97999.19;;;20.49;48.92